Surry, ME (04684)

12:18 AM EDT on April 26, 2017 (GMT -0400)
Morgan Bay | | Change Station

Elev 230 ft 44.49 °N, 68.50 °W | Updated 2 seconds ago

Rain
Rain
42.0 °F
Feels Like 39 °F
N
4.9
Wind Variable Wind from ENE
Gusts 9.0 mph

Today
High -- | Low -- °F
--% Chance of Precip.
Yesterday
High -- | Low -- °F
Precip. -- in
Pressure 30.29 in
Visibility 10.0 miles
Clouds Mostly Cloudy 1200 ft
Overcast 3200 ft
Windchill 39 °F
Dew Point 40 °F
Humidity 94%
Rainfall 0.02 in
Snow Depth Not available.
5:31 AM 7:32 PM
Waning Crescent, 0% visible
METAR KBHB 260356Z AUTO 09008KT 10SM -RA BKN012 OVC032 06/04 A3027 RMK AO2 SLP255 P0002 T00610044 400940017
Pressure 30.29 in
Visibility 10.0 miles
Clouds Mostly Cloudy 1200 ft
Overcast 3200 ft
Windchill 39 °F
Dew Point 40 °F
Humidity 94%
Rainfall 0.02 in
Snow Depth Not available.
5:31 AM 7:32 PM
Waning Crescent, 0% visible
METAR KBHB 260356Z AUTO 09008KT 10SM -RA BKN012 OVC032 06/04 A3027 RMK AO2 SLP255 P0002 T00610044 400940017

Get Severe Weather Alerts

Thanks for signing up!

Be on the lookout for a verification email in your inbox.

You'll start receiving the daily forecast at 8 AM.

×

10-Day Weather Forecast

Almanac

Astronomy

Apr. 26, 2017 Rise Set
Actual Time
Civil Twilight
Nautical Twilight
Astronomical Twilight
Moon
Length of Visible Light
Length of Day
Tomorrow will be .
, % of the Moon is Illuminated

Today's Extremes

State Highs State Lows

Community

WunderPhotos

WunderBlog® & News

Nearby

Air Quality

  Air Quality AQ Index Pollutant
Not available.

Snow Depth

Station Depth Elevation

Earthquake Activity

City Distance Mag. Time & Date
Minimum magnitude displayed is 2.5.

Coastal Water Temperatures

Place Temperature

Stations

Nearby Weather Stations

Station Location Temp. Windchill Dew Point Humidity Wind Precip. Elev Updated Type
                   

Watches & Warnings

There are currently no watches in effect.